Atkinson, Illinois
Current Conditions -  °F | °C
As of 1:52 PM on Sunday 23 Nov 2014 (Local Time) from KMLI Reporting Station
Light Rain Light Rain  
Wind Chill: 53°   Ceiling: 900
Heat Index: 53°   Visibility: 3mi
Dew Point: 50°   Wind: 12mph
Humidity: 89%   Direction: 150°SSE
Pressure: 29.4"   Gusts: NA
Location:  41.42°N, 90.02°W
Report Text: KMLI 231952Z 15010KT 3SM -RA BR BKN009 BKN014 OVC055 12/10 A2940 RMK AO2 CIG 007V011 SLP956 P0003 T01170100 $
Loading
Personal Weather Stations






























Interactive Weather Map New forecast layout! Learn more

10-Day Weather Forecast

Advertisements
Track Severe Weather on mobile